createdAt,value
2023-01-26T00:01:50.630Z,97131.00
2023-01-26T00:04:17.071Z,97131.22
2023-01-26T00:06:43.500Z,97126.19
2023-01-26T00:09:12.250Z,97124.56
2023-01-26T00:11:39.409Z,97117.72
2023-01-26T00:14:05.831Z,97115.09
2023-01-26T00:16:32.335Z,97112.63
2023-01-26T00:18:58.783Z,97118.53
2023-01-26T00:21:25.221Z,97110.25
2023-01-26T00:23:52.149Z,97103.53
2023-01-26T00:26:19.863Z,97101.00
2023-01-26T00:28:46.428Z,97093.34
2023-01-26T00:31:19.699Z,97093.25
2023-01-26T00:33:46.277Z,97085.53
2023-01-26T00:36:12.814Z,97075.25
2023-01-26T00:38:39.419Z,97069.16
2023-01-26T00:41:05.932Z,97060.59
2023-01-26T00:43:32.363Z,97064.81
2023-01-26T00:45:58.815Z,97066.38
2023-01-26T00:48:25.245Z,97067.97
2023-01-26T00:50:52.003Z,97063.81
2023-01-26T00:53:18.554Z,97060.44
2023-01-26T00:55:45.109Z,97059.53
2023-01-26T00:58:11.652Z,97063.69
2023-01-26T01:00:38.292Z,97058.72
2023-01-26T01:03:05.148Z,97063.91
2023-01-26T01:05:31.686Z,97059.63
2023-01-26T01:07:58.295Z,97046.94
2023-01-26T01:10:24.754Z,97052.94
2023-01-26T01:12:51.168Z,97045.38
2023-01-26T01:15:17.837Z,97045.28
2023-01-26T01:17:44.271Z,97058.03
2023-01-26T01:20:11.346Z,97041.03
2023-01-26T01:22:38.003Z,97036.75
2023-01-26T01:25:04.628Z,97041.91
2023-01-26T01:27:31.073Z,97037.63
2023-01-26T01:29:57.491Z,97036.75
2023-01-26T01:32:23.959Z,97038.53
2023-01-26T01:34:50.450Z,97038.53
2023-01-26T01:37:17.072Z,97039.22
2023-01-26T01:39:43.539Z,97045.13
2023-01-26T01:42:09.997Z,97036.44
2023-01-26T01:44:36.936Z,97034.69
2023-01-26T01:47:03.341Z,97032.06
2023-01-26T01:49:30.667Z,97025.22
2023-01-26T01:51:57.086Z,97028.59
2023-01-26T01:54:25.841Z,97020.03
2023-01-26T01:56:52.863Z,97019.97
2023-01-26T01:59:22.559Z,97025.13
2023-01-26T02:01:49.264Z,97020.84
2023-01-26T02:04:35.093Z,97023.25
2023-01-26T02:07:01.620Z,97028.22
2023-01-26T02:09:49.201Z,97026.47
2023-01-26T02:12:15.621Z,97024.06
2023-01-26T02:14:42.061Z,97028.44
2023-01-26T02:17:09.165Z,97023.50
2023-01-26T02:19:35.551Z,97027.84
2023-01-26T02:22:03.634Z,97020.28
2023-01-26T02:24:30.832Z,97025.44
2023-01-26T02:26:57.303Z,97017.06
2023-01-26T02:29:23.785Z,97021.34
2023-01-26T02:31:50.455Z,97018.78
2023-01-26T02:34:17.000Z,97002.56
2023-01-26T02:36:43.427Z,97007.69
2023-01-26T02:39:12.854Z,97004.31
2023-01-26T02:41:58.040Z,97005.22
2023-01-26T02:44:26.550Z,97000.13
2023-01-26T02:46:53.084Z,96991.63
2023-01-26T02:49:38.170Z,96995.75
2023-01-26T02:52:04.893Z,96993.19
2023-01-26T02:54:50.144Z,96994.09
2023-01-26T02:57:16.758Z,96989.09
2023-01-26T02:59:43.243Z,96985.63
2023-01-26T03:02:09.781Z,96991.63
2023-01-26T03:04:36.270Z,96980.66
2023-01-26T03:07:02.743Z,96985.72
2023-01-26T03:09:29.152Z,96976.31
2023-01-26T03:11:55.591Z,96983.91
2023-01-26T03:14:21.998Z,96982.16
2023-01-26T03:16:48.442Z,96980.34
2023-01-26T03:19:33.534Z,96971.03
2023-01-26T03:22:20.912Z,96971.03
2023-01-26T03:25:06.284Z,96971.03
2023-01-26T03:27:40.714Z,96967.59
2023-01-26T03:30:07.510Z,96968.44
2023-01-26T03:32:33.923Z,96956.56
2023-01-26T03:35:00.428Z,96954.00
2023-01-26T03:37:54.949Z,96958.22
2023-01-26T03:40:40.349Z,96953.19
2023-01-26T03:43:25.990Z,96949.81
2023-01-26T03:46:11.168Z,96956.56
2023-01-26T03:48:56.545Z,96950.56
2023-01-26T03:51:41.707Z,96942.91
2023-01-26T03:54:26.735Z,96947.09
2023-01-26T03:56:53.203Z,96932.63
2023-01-26T03:59:38.041Z,96930.88
2023-01-26T04:02:27.492Z,96931.69
2023-01-26T04:05:12.540Z,96928.34
2023-01-26T04:07:57.734Z,96930.88
2023-01-26T04:10:24.178Z,96929.31
2023-01-26T04:13:09.511Z,96920.81
2023-01-26T04:15:54.648Z,96914.84
2023-01-26T04:18:39.838Z,96907.25
2023-01-26T04:21:25.097Z,96912.34
2023-01-26T04:23:53.178Z,96903.88
2023-01-26T04:26:19.613Z,96910.63
2023-01-26T04:28:46.025Z,96906.34
2023-01-26T04:31:12.468Z,96907.00
2023-01-26T04:33:38.947Z,96903.72
2023-01-26T04:36:05.839Z,96891.94
2023-01-26T04:38:32.354Z,96893.75
2023-01-26T04:40:58.835Z,96886.00
2023-01-26T04:43:25.364Z,96883.66
2023-01-26T04:45:59.297Z,96885.28
2023-01-26T04:48:26.134Z,96883.66
2023-01-26T04:50:56.289Z,96879.38
2023-01-26T04:53:22.821Z,96878.44
2023-01-26T04:55:49.311Z,96874.25
2023-01-26T04:58:15.927Z,96870.88
2023-01-26T05:00:42.390Z,96760.28
2023-01-26T05:03:10.380Z,96882.81
2023-01-26T05:05:37.351Z,96882.81
2023-01-26T05:08:06.816Z,96885.28
2023-01-26T05:10:33.260Z,96889.38
2023-01-26T05:12:59.696Z,96884.28
2023-01-26T05:15:26.154Z,96896.13
2023-01-26T05:17:52.621Z,96889.22
2023-01-26T05:23:47.197Z,96892.69
2023-01-26T05:26:13.669Z,96891.03
2023-01-26T05:28:40.107Z,96895.31
2023-01-26T05:34:35.238Z,96887.75
2023-01-26T05:37:01.789Z,96887.84
2023-01-26T05:39:28.273Z,96889.47
2023-01-26T05:41:56.942Z,96885.28
2023-01-26T05:44:24.802Z,96884.47
2023-01-26T05:46:51.597Z,96885.28
2023-01-26T05:49:18.054Z,96873.34
2023-01-26T05:51:44.569Z,96878.53
2023-01-26T05:54:11.000Z,96885.28
2023-01-26T05:56:37.431Z,96885.28
2023-01-26T05:59:04.028Z,96881.00
2023-01-26T06:01:30.497Z,96882.72
2023-01-26T06:03:57.056Z,96873.34
2023-01-26T06:06:23.583Z,96869.06
2023-01-26T06:08:50.084Z,96868.97
2023-01-26T06:11:16.603Z,96870.69
2023-01-26T06:13:43.137Z,96868.06
2023-01-26T06:16:48.834Z,96875.66
2023-01-26T06:19:15.351Z,96886.78
2023-01-26T06:21:41.772Z,96890.16
2023-01-26T06:24:08.402Z,96894.34
2023-01-26T06:26:34.969Z,96882.50
2023-01-26T06:29:01.384Z,96897.84
2023-01-26T06:31:29.802Z,96894.44
2023-01-26T06:33:56.408Z,96889.22
2023-01-26T06:36:23.058Z,96890.06
2023-01-26T06:38:50.054Z,96895.31
2023-01-26T06:41:47.576Z,96894.50
2023-01-26T06:44:14.009Z,96881.66
2023-01-26T06:46:40.454Z,96893.50
2023-01-26T06:49:06.980Z,96885.78
2023-01-26T06:51:33.382Z,96895.97
2023-01-26T06:53:59.978Z,96883.13
2023-01-26T06:56:28.731Z,96879.66
2023-01-26T06:58:55.204Z,96881.41
2023-01-26T07:01:22.689Z,96881.47
2023-01-26T07:03:49.604Z,96885.59
2023-01-26T07:06:16.252Z,96881.34
2023-01-26T07:08:42.688Z,96882.06
2023-01-26T07:11:09.330Z,96876.88
2023-01-26T07:13:35.851Z,96874.16
2023-01-26T07:16:03.061Z,96873.25
2023-01-26T07:18:29.579Z,96882.63
2023-01-26T07:21:00.155Z,96873.34
2023-01-26T07:23:26.624Z,96868.22
2023-01-26T07:25:53.079Z,96869.88
2023-01-26T07:28:19.512Z,96869.78
2023-01-26T07:30:45.927Z,96865.50
2023-01-26T07:33:12.449Z,96864.41
2023-01-26T07:35:38.912Z,96863.41
2023-01-26T07:38:05.466Z,96864.91
2023-01-26T07:40:32.280Z,96862.25
2023-01-26T07:42:59.888Z,96854.69
2023-01-26T07:45:26.730Z,96857.97
2023-01-26T07:47:56.397Z,96856.88
2023-01-26T07:50:22.833Z,96859.28
2023-01-26T07:52:49.294Z,96849.78
2023-01-26T07:55:16.292Z,96849.59
2023-01-26T07:57:42.894Z,96852.81
2023-01-26T08:00:09.994Z,96852.56
2023-01-26T08:02:37.064Z,96843.72
2023-01-26T08:05:03.693Z,96846.03
2023-01-26T08:07:30.129Z,96850.13
2023-01-26T08:09:56.618Z,96844.09
2023-01-26T08:12:23.062Z,96843.13
2023-01-26T08:14:49.666Z,96843.75
2023-01-26T08:17:17.701Z,96842.75
2023-01-26T08:19:44.859Z,96845.78
2023-01-26T08:22:11.438Z,96846.34
2023-01-26T08:24:38.084Z,96839.94
2023-01-26T08:27:04.563Z,96842.94
2023-01-26T08:29:31.002Z,96840.03
2023-01-26T08:31:57.540Z,96848.41
2023-01-26T08:34:26.361Z,96843.59
2023-01-26T08:36:53.006Z,96841.03
2023-01-26T08:39:19.931Z,96846.31
2023-01-26T08:41:46.835Z,96847.25
2023-01-26T08:44:13.330Z,96845.41
2023-01-26T08:46:39.801Z,96851.16
2023-01-26T08:49:06.208Z,96857.56
2023-01-26T08:51:32.837Z,96851.25
2023-01-26T08:53:59.463Z,96853.66
2023-01-26T08:56:25.881Z,96849.34
2023-01-26T08:58:52.301Z,96858.47
2023-01-26T09:01:18.890Z,96853.78
2023-01-26T09:03:45.415Z,96857.81
2023-01-26T09:06:12.263Z,96848.50
2023-01-26T09:08:38.685Z,96855.16
2023-01-26T09:11:05.845Z,96844.94
2023-01-26T09:13:32.451Z,96851.72
2023-01-26T09:15:58.957Z,96844.03
2023-01-26T09:18:25.433Z,96849.69
2023-01-26T09:20:51.923Z,96843.09
2023-01-26T09:23:18.450Z,96848.66
2023-01-26T09:25:44.995Z,96836.50
2023-01-26T09:28:11.467Z,96843.09
2023-01-26T09:30:38.024Z,96845.34
2023-01-26T09:33:04.536Z,96845.88
2023-01-26T09:35:31.017Z,96848.34
2023-01-26T09:37:57.815Z,96851.63
2023-01-26T09:40:24.292Z,96854.81
2023-01-26T09:43:09.604Z,96846.22
2023-01-26T09:45:39.248Z,96845.03
2023-01-26T09:48:08.658Z,96835.28
2023-01-26T09:50:36.530Z,96839.31
2023-01-26T09:53:04.715Z,96835.66
2023-01-26T09:55:31.836Z,96834.44
2023-01-26T09:58:03.195Z,96833.13
2023-01-26T10:00:33.971Z,96827.41
2023-01-26T10:03:03.534Z,96828.03
2023-01-26T10:05:29.991Z,96826.09
2023-01-26T10:07:56.412Z,96814.13
2023-01-26T10:10:30.584Z,96817.50
2023-01-26T10:12:57.003Z,96812.38
2023-01-26T10:15:39.384Z,96809.63
2023-01-26T10:18:12.244Z,96814.41
2023-01-26T10:20:51.812Z,96813.31
2023-01-26T10:23:21.893Z,96817.31
2023-01-26T10:25:48.373Z,96809.31
2023-01-26T10:28:16.441Z,96802.25
2023-01-26T10:30:43.544Z,96805.44
2023-01-26T10:33:30.804Z,96800.09
2023-01-26T10:35:57.571Z,96796.41
2023-01-26T10:38:33.349Z,96790.06
2023-01-26T10:41:00.438Z,96789.75
2023-01-26T10:47:05.435Z,96781.44
2023-01-26T10:49:32.129Z,96774.25
2023-01-26T10:52:08.996Z,96774.97
2023-01-26T10:54:37.094Z,96776.41
2023-01-26T10:57:04.580Z,96775.81
2023-01-26T10:59:34.097Z,96775.19
2023-01-26T11:02:01.720Z,96769.84
2023-01-26T11:04:28.347Z,96769.00
2023-01-26T11:06:55.104Z,96763.69
2023-01-26T11:09:28.303Z,96767.59
2023-01-26T11:11:57.844Z,96762.56
2023-01-26T11:14:24.399Z,96767.47
2023-01-26T11:16:53.852Z,96759.59
2023-01-26T11:19:30.399Z,96757.31
2023-01-26T11:22:00.456Z,96758.34
2023-01-26T11:24:31.436Z,96759.38
2023-01-26T11:27:14.370Z,96759.56
2023-01-26T11:29:47.336Z,96756.63
2023-01-26T11:32:13.758Z,96749.75
2023-01-26T11:34:43.933Z,96747.09
2023-01-26T11:37:29.238Z,96741.84
2023-01-26T11:40:14.603Z,96733.94
2023-01-26T11:42:44.060Z,96730.47
2023-01-26T11:45:16.570Z,96728.09
2023-01-26T11:47:50.282Z,96728.00
2023-01-26T11:50:22.909Z,96723.78
2023-01-26T11:53:08.209Z,96723.22
2023-01-26T11:55:48.512Z,96716.66
2023-01-26T11:58:24.228Z,96713.38
2023-01-26T12:00:52.252Z,96716.66
2023-01-26T12:03:18.704Z,96714.00
2023-01-26T12:05:46.465Z,96716.16
2023-01-26T12:08:16.404Z,96708.97
2023-01-26T12:10:48.572Z,96712.88
2023-01-26T12:13:18.808Z,96708.16
2023-01-26T12:15:47.480Z,96703.69
2023-01-26T12:18:16.654Z,96703.97
2023-01-26T12:20:45.679Z,96701.00
2023-01-26T12:23:13.435Z,96708.88
2023-01-26T12:25:41.183Z,96693.72
2023-01-26T12:28:10.726Z,96696.88
2023-01-26T12:30:57.905Z,96695.16
2023-01-26T12:33:24.578Z,96691.97
2023-01-26T12:35:56.091Z,96694.72
2023-01-26T12:38:25.566Z,96691.97
2023-01-26T12:40:58.415Z,96694.31
2023-01-26T12:43:39.983Z,96685.63
2023-01-26T12:46:06.513Z,96689.72
2023-01-26T12:49:05.568Z,96692.00
2023-01-26T12:51:42.314Z,96689.03
2023-01-26T12:54:08.781Z,96687.75
2023-01-26T12:56:36.713Z,96682.03
2023-01-26T12:59:46.986Z,96683.56
2023-01-26T13:02:20.402Z,96686.34
2023-01-26T13:04:49.123Z,96683.78
2023-01-26T13:10:44.311Z,96673.63
2023-01-26T13:13:16.780Z,96665.13
2023-01-26T13:15:43.370Z,96668.41
2023-01-26T13:18:11.074Z,96667.69
2023-01-26T13:20:40.309Z,96661.34
2023-01-26T13:23:30.192Z,96661.44
2023-01-26T13:26:15.528Z,96658.06
2023-01-26T13:28:42.161Z,96664.31
2023-01-26T13:31:09.308Z,96661.84
2023-01-26T13:33:35.865Z,96667.25
2023-01-26T13:36:02.911Z,96665.75
2023-01-26T13:38:33.404Z,96678.00
2023-01-26T13:41:00.419Z,96671.44
2023-01-26T13:43:32.168Z,96664.06
2023-01-26T13:46:17.537Z,96665.09
2023-01-26T13:48:45.634Z,96667.94
2023-01-26T13:51:41.489Z,96665.59
2023-01-26T13:54:14.584Z,96660.94
2023-01-26T13:56:41.588Z,96664.31
2023-01-26T13:59:07.989Z,96665.25
2023-01-26T14:01:34.565Z,96660.22
2023-01-26T14:04:04.488Z,96662.97
2023-01-26T14:06:30.939Z,96669.00
2023-01-26T14:08:57.436Z,96676.16
2023-01-26T14:11:24.712Z,96673.09
2023-01-26T14:13:52.685Z,96672.34
2023-01-26T14:16:20.813Z,96667.44
2023-01-26T14:18:48.371Z,96669.19
2023-01-26T14:21:17.398Z,96668.25
2023-01-26T14:23:43.841Z,96674.09
2023-01-26T14:26:19.180Z,96675.19
2023-01-26T14:28:45.681Z,96663.31
2023-01-26T14:31:15.235Z,96661.59
2023-01-26T14:33:41.779Z,96664.53
2023-01-26T14:36:13.050Z,96663.91
2023-01-26T14:38:42.703Z,96669.84
2023-01-26T14:41:29.584Z,96668.28
2023-01-26T14:43:59.551Z,96670.03
2023-01-26T14:46:26.812Z,96669.03
2023-01-26T14:48:58.286Z,96667.38
2023-01-26T14:51:24.906Z,96672.03
2023-01-26T14:53:55.787Z,96668.88
2023-01-26T14:56:23.512Z,96676.63
2023-01-26T14:58:50.672Z,96667.31
2023-01-26T15:01:24.203Z,96669.88
2023-01-26T15:03:51.588Z,96662.22
2023-01-26T15:06:20.391Z,96664.75
2023-01-26T15:09:13.334Z,96664.75
2023-01-26T15:11:58.710Z,96665.56
2023-01-26T15:14:30.200Z,96664.03
2023-01-26T15:16:56.656Z,96660.94
2023-01-26T15:19:23.881Z,96668.19
2023-01-26T15:21:50.478Z,96662.63
2023-01-26T15:24:17.055Z,96667.00
2023-01-26T15:26:43.503Z,96656.16
2023-01-26T15:29:46.071Z,96668.41
2023-01-26T15:32:26.207Z,96651.59
2023-01-26T15:35:22.668Z,96661.38
2023-01-26T15:37:49.250Z,96662.56
2023-01-26T15:40:15.738Z,96662.94
2023-01-26T15:42:42.274Z,96660.66
2023-01-26T15:45:22.838Z,96656.66
2023-01-26T15:47:49.489Z,96650.91
2023-01-26T15:50:27.394Z,96650.25
2023-01-26T15:52:54.819Z,96651.09
2023-01-26T15:55:21.902Z,96658.66
2023-01-26T15:58:00.759Z,96667.03
2023-01-26T16:00:43.561Z,96671.97
2023-01-26T16:03:12.251Z,96674.44
2023-01-26T16:05:38.750Z,96673.63
2023-01-26T16:08:05.252Z,96679.44
2023-01-26T16:10:31.678Z,96673.41
2023-01-26T16:12:58.092Z,96673.34
2023-01-26T16:15:27.451Z,96669.78
2023-01-26T16:17:53.981Z,96675.91
2023-01-26T16:20:20.463Z,96672.59
2023-01-26T16:22:46.921Z,96684.44
2023-01-26T16:25:18.465Z,96678.53
2023-01-26T16:27:44.903Z,96677.00
2023-01-26T16:30:11.497Z,96687.75
2023-01-26T16:32:38.188Z,96683.56
2023-01-26T16:35:11.809Z,96673.50
2023-01-26T16:37:38.423Z,96679.28
2023-01-26T16:40:05.499Z,96671.06
2023-01-26T16:42:32.336Z,96673.88
2023-01-26T16:44:58.794Z,96672.97
2023-01-26T16:47:25.277Z,96661.13
2023-01-26T16:49:51.734Z,96668.13
2023-01-26T16:52:18.207Z,96668.44
2023-01-26T16:54:45.715Z,96658.22
2023-01-26T16:57:12.213Z,96662.41
2023-01-26T16:59:39.220Z,96655.81
2023-01-26T17:02:05.776Z,96659.28
2023-01-26T17:04:32.267Z,96657.56
2023-01-26T17:06:58.736Z,96649.09
2023-01-26T17:09:25.217Z,96647.44
2023-01-26T17:11:51.768Z,96653.53
2023-01-26T17:14:18.286Z,96644.16
2023-01-26T17:16:44.823Z,96648.38
2023-01-26T17:19:11.294Z,96650.91
2023-01-26T17:21:37.743Z,96649.19
2023-01-26T17:24:04.445Z,96647.44
2023-01-26T17:26:31.537Z,96654.19
2023-01-26T17:28:58.086Z,96649.09
2023-01-26T17:31:24.682Z,96650.81
2023-01-26T17:33:51.249Z,96648.28
2023-01-26T17:36:18.031Z,96647.44
2023-01-26T17:38:44.699Z,96646.53
2023-01-26T17:41:11.207Z,96638.06
2023-01-26T17:43:37.647Z,96640.59
2023-01-26T17:46:07.095Z,96647.44
2023-01-26T17:48:34.310Z,96656.03
2023-01-26T17:51:00.884Z,96652.56
2023-01-26T17:53:28.106Z,96655.72
2023-01-26T17:55:54.644Z,96663.38
2023-01-26T17:58:22.335Z,96660.31
2023-01-26T18:00:48.867Z,96669.06
2023-01-26T18:03:16.990Z,96662.38
2023-01-26T18:05:50.055Z,96659.94
2023-01-26T18:08:16.513Z,96667.59
2023-01-26T18:10:43.164Z,96661.66
2023-01-26T18:13:09.622Z,96670.22
2023-01-26T18:15:36.611Z,96659.31
2023-01-26T18:18:03.243Z,96662.75
2023-01-26T18:20:29.839Z,96668.84
2023-01-26T18:22:56.799Z,96666.41
2023-01-26T18:25:23.306Z,96667.31
2023-01-26T18:27:49.773Z,96665.59
2023-01-26T18:30:16.445Z,96659.47
2023-01-26T18:32:42.970Z,96673.44
2023-01-26T18:35:09.956Z,96672.69
2023-01-26T18:37:45.943Z,96669.78
2023-01-26T18:40:13.196Z,96663.38
2023-01-26T18:42:39.805Z,96663.75
2023-01-26T18:45:06.629Z,96671.66
2023-01-26T18:47:33.110Z,96675.28
2023-01-26T18:49:59.548Z,96675.19
2023-01-26T18:52:25.991Z,96676.94
2023-01-26T18:54:53.267Z,96682.78
2023-01-26T18:57:20.223Z,96674.94
2023-01-26T18:59:46.773Z,96675.75
2023-01-26T19:02:13.626Z,96674.22
2023-01-26T19:04:43.325Z,96675.94
2023-01-26T19:07:10.275Z,96680.28
2023-01-26T19:09:36.849Z,96682.03
2023-01-26T19:12:03.565Z,96681.31
2023-01-26T19:14:32.295Z,96672.19
2023-01-26T19:16:59.116Z,96665.53
2023-01-26T19:19:25.547Z,96672.28
2023-01-26T19:21:52.011Z,96662.97
2023-01-26T19:24:18.519Z,96662.78
2023-01-26T19:26:45.073Z,96657.69
2023-01-26T19:29:11.606Z,96658.69
2023-01-26T19:31:38.172Z,96656.16
2023-01-26T19:34:05.425Z,96650.22
2023-01-26T19:36:32.466Z,96660.44
2023-01-26T19:38:58.954Z,96655.22
2023-01-26T19:41:25.424Z,96645.94
2023-01-26T19:43:51.935Z,96650.03
2023-01-26T19:46:18.572Z,96638.91
2023-01-26T19:48:45.862Z,96638.84
2023-01-26T19:51:13.315Z,96646.50
2023-01-26T19:53:40.564Z,96637.03
2023-01-26T19:56:10.739Z,96641.22
2023-01-26T19:58:37.210Z,96634.13
2023-01-26T20:01:04.824Z,96636.66
2023-01-26T20:03:31.375Z,96644.41
2023-01-26T20:05:57.824Z,96640.41
2023-01-26T20:08:24.957Z,96642.13
2023-01-26T20:10:51.450Z,96649.97
2023-01-26T20:13:17.944Z,96651.75
2023-01-26T20:15:44.407Z,96654.50
2023-01-26T20:18:10.903Z,96644.47
2023-01-26T20:20:37.504Z,96649.81
2023-01-26T20:23:04.295Z,96649.94
2023-01-26T20:25:30.811Z,96648.94
2023-01-26T20:27:57.271Z,96650.75
2023-01-26T20:30:24.007Z,96646.47
2023-01-26T20:32:52.370Z,96638.75
2023-01-26T20:35:18.841Z,96641.28
2023-01-26T20:37:45.546Z,96638.75
2023-01-26T20:40:13.280Z,96634.38
2023-01-26T20:42:39.898Z,96636.00
2023-01-26T20:45:07.015Z,96642.66
2023-01-26T20:47:36.742Z,96640.19
2023-01-26T20:50:03.249Z,96642.84
2023-01-26T20:52:31.062Z,96639.47
2023-01-26T20:54:57.632Z,96640.44
2023-01-26T20:57:24.098Z,96637.16
2023-01-26T20:59:50.555Z,96644.91
2023-01-26T21:02:17.026Z,96642.28
2023-01-26T21:04:43.610Z,96646.47
2023-01-26T21:07:10.145Z,96638.00
2023-01-26T21:09:36.602Z,96641.34
2023-01-26T21:12:03.092Z,96642.09
2023-01-26T21:14:29.595Z,96636.91
2023-01-26T21:16:56.356Z,96630.09
2023-01-26T21:19:22.897Z,96632.47
2023-01-26T21:21:49.333Z,96626.63
2023-01-26T21:24:15.844Z,96626.63
2023-01-26T21:26:42.298Z,96626.63
2023-01-26T21:29:10.067Z,96620.69
2023-01-26T21:31:36.518Z,96631.00
2023-01-26T21:34:03.099Z,96624.25
2023-01-26T21:36:30.964Z,96625.13
2023-01-26T21:38:57.794Z,96630.25
2023-01-26T21:41:46.538Z,96626.88
2023-01-26T21:44:14.266Z,96628.69
2023-01-26T21:46:40.982Z,96618.69
2023-01-26T21:49:08.067Z,96616.22
2023-01-26T21:51:53.169Z,96614.56
2023-01-26T21:54:19.699Z,96620.59
2023-01-26T21:56:46.477Z,96614.56
2023-01-26T21:59:14.817Z,96614.56
2023-01-26T22:01:51.382Z,96608.56
2023-01-26T22:04:18.770Z,96606.81
2023-01-26T22:06:45.471Z,96599.19
2023-01-26T22:09:12.548Z,96600.91
2023-01-26T22:11:40.514Z,96599.13
2023-01-26T22:14:07.410Z,96602.53
2023-01-26T22:16:34.275Z,96600.84
2023-01-26T22:19:00.836Z,96602.84
2023-01-26T22:21:27.626Z,96598.81
2023-01-26T22:23:55.275Z,96603.09
2023-01-26T22:26:22.100Z,96599.06
2023-01-26T22:28:55.550Z,96593.97
2023-01-26T22:31:25.438Z,96595.22
2023-01-26T22:33:52.218Z,96597.47
2023-01-26T22:36:18.953Z,96597.00
2023-01-26T22:38:45.480Z,96592.97
2023-01-26T22:41:19.799Z,96590.88
2023-01-26T22:43:48.174Z,96591.13
2023-01-26T22:46:14.998Z,96582.75
2023-01-26T22:48:41.470Z,96584.38
2023-01-26T22:51:11.954Z,96580.19
2023-01-26T22:53:38.565Z,96584.28
2023-01-26T22:56:05.609Z,96586.03
2023-01-26T22:58:33.362Z,96586.94
2023-01-26T23:01:04.029Z,96584.22
2023-01-26T23:03:30.522Z,96582.94
2023-01-26T23:06:00.515Z,96581.84
2023-01-26T23:08:27.505Z,96579.28
2023-01-26T23:11:01.880Z,96578.47
2023-01-26T23:13:28.341Z,96569.34
2023-01-26T23:15:54.826Z,96571.25
2023-01-26T23:18:21.348Z,96570.34
2023-01-26T23:20:47.818Z,96573.25
2023-01-26T23:23:14.935Z,96573.41
2023-01-26T23:25:50.552Z,96567.97
2023-01-26T23:28:17.664Z,96573.34
2023-01-26T23:30:44.211Z,96570.13
2023-01-26T23:33:10.790Z,96570.31
2023-01-26T23:35:37.276Z,96573.75
2023-01-26T23:38:48.414Z,96569.75
2023-01-26T23:41:14.946Z,96568.00
2023-01-26T23:43:41.436Z,96577.38
2023-01-26T23:46:08.454Z,96568.94
2023-01-26T23:48:34.931Z,96574.91
2023-01-26T23:51:04.796Z,96566.28
2023-01-26T23:53:31.385Z,96568.66
2023-01-26T23:55:59.008Z,96568.50
2023-01-26T23:58:25.523Z,96567.44
